Enrique Malek International Airport
MPDA : now visible

Airfield :











YOU CAN JOIN US ON...

 
LOGIN :

Register | Disclaimer

   EN    FR    IT 

 









Legend :    VFR   Marginal VFR   IFR   Intensive IFR   Very Intensive IFR
Visi :
Ceiling :
>= 8 km
>= 3000ft
5 to 8 km
1000 to 3000 ft
1500m to 5 km
500 to 1000 ft
800 to 1500m
200 to 500 ft
< 800m
< 200 ft
Symbols :   Thunderstorms  Fog  Heavy snow  Heavy precipitations  Wind > 20 kt






- Airport Elevation : 89 ft
- IATA code : DAV


MPDA - Enrique Malek International

CURRENT METAR :
  • 051900Z VRB03KT 7000 SCT017 SCT120 29/24 Q1010 RERA

EXPIRED METARs :
  • 051800Z 22006KT 7000 -RA SCT016 30/24 Q1011 RWY WET
  • 051700Z 17005KT 9999 SCT017 30/23 Q1010

TAF TAF MPDA
Valid from the 05 at 18:00 until the 06 at 06:00 UTC


051700Z 0518/0606 22008KT 9999 SCT018 SCT090
PROB40
TEMPO 0520/0522 6000 TSRA SCT014CB BKN090



MET'MAP, your aeronautical weather chart ! - Copyright ORBIFLY December 2007 - Disclaimer

ORBIFLY MET'MAP TEAM :

Programming & Development : Alexandra Zaïnal
Concept & original design : Baudouin d'Aumeries
Assistance for programming : Marc-Olivier Méhu
Technical & hardware support : Manuel Goepfert

Contact : metmap@orbifly.com




SOURCES & CREDITS :

   NOAA       Earth
Advisory